sensor_id;sensor_type;location;lat;lon;timestamp;P1;durP1;ratioP1;P2;durP2;ratioP2
4583;SDS011;2304;47.606;12.186;2023-12-04T00:01:21;13.00;;;7.17;;
4583;SDS011;2304;47.606;12.186;2023-12-04T00:06:25;14.33;;;7.27;;
4583;SDS011;2304;47.606;12.186;2023-12-04T00:11:27;11.03;;;5.90;;
4583;SDS011;2304;47.606;12.186;2023-12-04T00:16:29;17.40;;;7.67;;
4583;SDS011;2304;47.606;12.186;2023-12-04T00:21:35;15.80;;;7.33;;
4583;SDS011;2304;47.606;12.186;2023-12-04T00:26:37;11.20;;;5.83;;
4583;SDS011;2304;47.606;12.186;2023-12-04T00:31:39;10.30;;;6.70;;
4583;SDS011;2304;47.606;12.186;2023-12-04T00:36:42;9.87;;;6.00;;
4583;SDS011;2304;47.606;12.186;2023-12-04T00:41:44;13.67;;;6.70;;
4583;SDS011;2304;47.606;12.186;2023-12-04T00:46:46;9.20;;;5.90;;
4583;SDS011;2304;47.606;12.186;2023-12-04T00:51:49;11.73;;;7.10;;
4583;SDS011;2304;47.606;12.186;2023-12-04T00:56:51;14.13;;;6.63;;
4583;SDS011;2304;47.606;12.186;2023-12-04T01:01:53;11.10;;;5.47;;
4583;SDS011;2304;47.606;12.186;2023-12-04T01:06:57;9.27;;;5.20;;
4583;SDS011;2304;47.606;12.186;2023-12-04T01:11:58;8.03;;;5.10;;
4583;SDS011;2304;47.606;12.186;2023-12-04T01:17:02;10.97;;;6.60;;
4583;SDS011;2304;47.606;12.186;2023-12-04T01:22:05;13.93;;;6.80;;
4583;SDS011;2304;47.606;12.186;2023-12-04T01:27:07;6.30;;;4.20;;
4583;SDS011;2304;47.606;12.186;2023-12-04T01:32:09;10.10;;;5.73;;
4583;SDS011;2304;47.606;12.186;2023-12-04T01:37:12;9.90;;;5.70;;
4583;SDS011;2304;47.606;12.186;2023-12-04T01:42:14;9.00;;;5.83;;
4583;SDS011;2304;47.606;12.186;2023-12-04T01:47:16;11.00;;;6.33;;
4583;SDS011;2304;47.606;12.186;2023-12-04T01:52:21;10.80;;;5.83;;
4583;SDS011;2304;47.606;12.186;2023-12-04T01:57:23;11.07;;;6.00;;
4583;SDS011;2304;47.606;12.186;2023-12-04T02:02:25;8.20;;;5.50;;
4583;SDS011;2304;47.606;12.186;2023-12-04T02:07:28;7.90;;;4.73;;
4583;SDS011;2304;47.606;12.186;2023-12-04T02:12:31;9.70;;;6.67;;
4583;SDS011;2304;47.606;12.186;2023-12-04T02:17:33;6.57;;;4.70;;
4583;SDS011;2304;47.606;12.186;2023-12-04T02:22:37;9.00;;;5.80;;
4583;SDS011;2304;47.606;12.186;2023-12-04T02:27:43;8.23;;;5.40;;
4583;SDS011;2304;47.606;12.186;2023-12-04T02:32:50;8.00;;;5.63;;
4583;SDS011;2304;47.606;12.186;2023-12-04T02:37:54;9.53;;;5.17;;
4583;SDS011;2304;47.606;12.186;2023-12-04T02:42:59;7.77;;;4.53;;
4583;SDS011;2304;47.606;12.186;2023-12-04T02:48:01;9.37;;;5.87;;
4583;SDS011;2304;47.606;12.186;2023-12-04T02:53:03;10.15;;;5.75;;
4583;SDS011;2304;47.606;12.186;2023-12-04T02:58:07;8.93;;;5.20;;
4583;SDS011;2304;47.606;12.186;2023-12-04T03:03:09;10.23;;;5.30;;
4583;SDS011;2304;47.606;12.186;2023-12-04T03:08:11;7.70;;;4.67;;
4583;SDS011;2304;47.606;12.186;2023-12-04T03:13:14;8.27;;;5.27;;
4583;SDS011;2304;47.606;12.186;2023-12-04T03:18:16;8.57;;;5.43;;
4583;SDS011;2304;47.606;12.186;2023-12-04T03:23:18;8.40;;;5.27;;
4583;SDS011;2304;47.606;12.186;2023-12-04T03:28:21;10.90;;;5.77;;
4583;SDS011;2304;47.606;12.186;2023-12-04T03:33:23;8.67;;;4.83;;
4583;SDS011;2304;47.606;12.186;2023-12-04T03:38:25;7.57;;;5.00;;
4583;SDS011;2304;47.606;12.186;2023-12-04T03:43:28;8.20;;;5.20;;
4583;SDS011;2304;47.606;12.186;2023-12-04T03:48:30;8.10;;;4.60;;
4583;SDS011;2304;47.606;12.186;2023-12-04T03:53:32;7.20;;;4.27;;
4583;SDS011;2304;47.606;12.186;2023-12-04T03:58:35;5.80;;;4.07;;
4583;SDS011;2304;47.606;12.186;2023-12-04T04:03:37;5.50;;;4.40;;
4583;SDS011;2304;47.606;12.186;2023-12-04T04:08:39;6.47;;;4.87;;
4583;SDS011;2304;47.606;12.186;2023-12-04T04:13:42;6.40;;;4.20;;
4583;SDS011;2304;47.606;12.186;2023-12-04T04:18:44;7.73;;;4.83;;
4583;SDS011;2304;47.606;12.186;2023-12-04T04:23:46;8.57;;;4.67;;
4583;SDS011;2304;47.606;12.186;2023-12-04T04:28:49;8.77;;;4.63;;
4583;SDS011;2304;47.606;12.186;2023-12-04T04:33:51;8.37;;;4.80;;
4583;SDS011;2304;47.606;12.186;2023-12-04T04:38:53;7.07;;;4.90;;
4583;SDS011;2304;47.606;12.186;2023-12-04T04:43:56;5.83;;;3.90;;
4583;SDS011;2304;47.606;12.186;2023-12-04T04:48:58;6.63;;;4.40;;
4583;SDS011;2304;47.606;12.186;2023-12-04T04:54:00;10.37;;;4.80;;
4583;SDS011;2304;47.606;12.186;2023-12-04T04:59:03;10.43;;;4.93;;
4583;SDS011;2304;47.606;12.186;2023-12-04T05:04:05;5.23;;;4.27;;
4583;SDS011;2304;47.606;12.186;2023-12-04T05:09:07;6.67;;;3.60;;
4583;SDS011;2304;47.606;12.186;2023-12-04T05:14:10;7.27;;;4.00;;
4583;SDS011;2304;47.606;12.186;2023-12-04T05:19:12;9.73;;;5.30;;
4583;SDS011;2304;47.606;12.186;2023-12-04T05:24:14;6.00;;;4.30;;
4583;SDS011;2304;47.606;12.186;2023-12-04T05:29:17;6.73;;;3.87;;
4583;SDS011;2304;47.606;12.186;2023-12-04T05:34:19;8.33;;;3.97;;
4583;SDS011;2304;47.606;12.186;2023-12-04T05:39:21;7.87;;;4.83;;
4583;SDS011;2304;47.606;12.186;2023-12-04T05:44:24;5.60;;;3.83;;
4583;SDS011;2304;47.606;12.186;2023-12-04T05:49:26;6.30;;;4.40;;
4583;SDS011;2304;47.606;12.186;2023-12-04T05:54:29;9.93;;;4.20;;
4583;SDS011;2304;47.606;12.186;2023-12-04T05:59:32;7.43;;;4.03;;
4583;SDS011;2304;47.606;12.186;2023-12-04T06:04:34;7.23;;;4.50;;
4583;SDS011;2304;47.606;12.186;2023-12-04T06:09:36;8.10;;;4.67;;
4583;SDS011;2304;47.606;12.186;2023-12-04T06:14:40;8.80;;;4.67;;
4583;SDS011;2304;47.606;12.186;2023-12-04T06:19:42;7.33;;;4.77;;
4583;SDS011;2304;47.606;12.186;2023-12-04T06:24:44;9.43;;;4.43;;
4583;SDS011;2304;47.606;12.186;2023-12-04T06:29:48;11.00;;;5.37;;
4583;SDS011;2304;47.606;12.186;2023-12-04T06:34:51;9.73;;;4.93;;
4583;SDS011;2304;47.606;12.186;2023-12-04T06:39:55;6.53;;;4.40;;
4583;SDS011;2304;47.606;12.186;2023-12-04T06:45:02;8.63;;;4.60;;
4583;SDS011;2304;47.606;12.186;2023-12-04T06:50:05;7.67;;;4.57;;
4583;SDS011;2304;47.606;12.186;2023-12-04T06:55:08;7.70;;;4.50;;
4583;SDS011;2304;47.606;12.186;2023-12-04T07:00:12;11.73;;;4.30;;
4583;SDS011;2304;47.606;12.186;2023-12-04T07:05:14;13.43;;;4.57;;
4583;SDS011;2304;47.606;12.186;2023-12-04T07:10:16;5.73;;;3.57;;
4583;SDS011;2304;47.606;12.186;2023-12-04T07:15:20;11.80;;;4.93;;
4583;SDS011;2304;47.606;12.186;2023-12-04T07:20:22;6.80;;;4.80;;
4583;SDS011;2304;47.606;12.186;2023-12-04T07:25:24;6.30;;;4.30;;
4583;SDS011;2304;47.606;12.186;2023-12-04T07:30:27;9.40;;;4.87;;
4583;SDS011;2304;47.606;12.186;2023-12-04T07:35:29;6.23;;;4.17;;
4583;SDS011;2304;47.606;12.186;2023-12-04T07:40:31;9.10;;;4.50;;
4583;SDS011;2304;47.606;12.186;2023-12-04T07:45:34;7.53;;;4.57;;
4583;SDS011;2304;47.606;12.186;2023-12-04T07:50:37;10.33;;;4.53;;
4583;SDS011;2304;47.606;12.186;2023-12-04T07:55:39;6.30;;;3.80;;
4583;SDS011;2304;47.606;12.186;2023-12-04T08:00:42;4.97;;;3.73;;
4583;SDS011;2304;47.606;12.186;2023-12-04T08:05:44;10.67;;;4.03;;
4583;SDS011;2304;47.606;12.186;2023-12-04T08:10:47;10.50;;;5.23;;
4583;SDS011;2304;47.606;12.186;2023-12-04T08:15:50;7.27;;;5.30;;
4583;SDS011;2304;47.606;12.186;2023-12-04T08:20:52;6.97;;;4.57;;
4583;SDS011;2304;47.606;12.186;2023-12-04T08:25:54;8.93;;;4.93;;
4583;SDS011;2304;47.606;12.186;2023-12-04T08:30:57;9.67;;;5.30;;
4583;SDS011;2304;47.606;12.186;2023-12-04T08:35:59;8.73;;;4.57;;
4583;SDS011;2304;47.606;12.186;2023-12-04T08:41:01;7.13;;;4.70;;
4583;SDS011;2304;47.606;12.186;2023-12-04T08:46:04;9.70;;;4.93;;
4583;SDS011;2304;47.606;12.186;2023-12-04T08:51:07;6.10;;;3.57;;
4583;SDS011;2304;47.606;12.186;2023-12-04T08:56:10;5.80;;;4.50;;
4583;SDS011;2304;47.606;12.186;2023-12-04T09:01:14;6.60;;;3.77;;
4583;SDS011;2304;47.606;12.186;2023-12-04T09:06:16;6.87;;;4.90;;
4583;SDS011;2304;47.606;12.186;2023-12-04T09:11:18;10.90;;;5.63;;
4583;SDS011;2304;47.606;12.186;2023-12-04T09:16:21;7.30;;;5.20;;
4583;SDS011;2304;47.606;12.186;2023-12-04T09:21:24;8.03;;;4.80;;
4583;SDS011;2304;47.606;12.186;2023-12-04T09:26:26;7.40;;;5.10;;
4583;SDS011;2304;47.606;12.186;2023-12-04T09:31:29;7.90;;;4.40;;
4583;SDS011;2304;47.606;12.186;2023-12-04T09:36:31;10.13;;;4.83;;
4583;SDS011;2304;47.606;12.186;2023-12-04T09:41:33;9.60;;;5.00;;
4583;SDS011;2304;47.606;12.186;2023-12-04T09:46:37;8.00;;;4.43;;
4583;SDS011;2304;47.606;12.186;2023-12-04T09:51:39;11.90;;;6.30;;
4583;SDS011;2304;47.606;12.186;2023-12-04T09:56:41;6.70;;;4.70;;
4583;SDS011;2304;47.606;12.186;2023-12-04T10:01:45;13.13;;;6.30;;
4583;SDS011;2304;47.606;12.186;2023-12-04T10:06:48;11.07;;;6.33;;
4583;SDS011;2304;47.606;12.186;2023-12-04T10:11:52;9.17;;;6.67;;
4583;SDS011;2304;47.606;12.186;2023-12-04T10:16:58;10.60;;;6.20;;
4583;SDS011;2304;47.606;12.186;2023-12-04T10:22:00;9.90;;;6.10;;
4583;SDS011;2304;47.606;12.186;2023-12-04T10:27:04;7.63;;;4.73;;
4583;SDS011;2304;47.606;12.186;2023-12-04T10:32:10;12.57;;;5.20;;
4583;SDS011;2304;47.606;12.186;2023-12-04T10:37:12;7.53;;;4.83;;
4583;SDS011;2304;47.606;12.186;2023-12-04T10:42:22;10.70;;;5.80;;
4583;SDS011;2304;47.606;12.186;2023-12-04T10:47:27;9.90;;;5.50;;
4583;SDS011;2304;47.606;12.186;2023-12-04T10:52:30;9.80;;;6.60;;
4583;SDS011;2304;47.606;12.186;2023-12-04T10:57:35;11.37;;;5.70;;
4583;SDS011;2304;47.606;12.186;2023-12-04T11:02:42;13.00;;;5.20;;
4583;SDS011;2304;47.606;12.186;2023-12-04T11:07:47;8.73;;;5.83;;
4583;SDS011;2304;47.606;12.186;2023-12-04T11:12:54;7.80;;;5.27;;
4583;SDS011;2304;47.606;12.186;2023-12-04T11:18:01;9.23;;;5.03;;
4583;SDS011;2304;47.606;12.186;2023-12-04T11:23:03;9.40;;;4.60;;
4583;SDS011;2304;47.606;12.186;2023-12-04T11:28:06;8.00;;;5.00;;
4583;SDS011;2304;47.606;12.186;2023-12-04T11:33:10;8.83;;;5.40;;
4583;SDS011;2304;47.606;12.186;2023-12-04T11:38:13;9.97;;;6.50;;
4583;SDS011;2304;47.606;12.186;2023-12-04T11:43:23;12.57;;;6.67;;
4583;SDS011;2304;47.606;12.186;2023-12-04T11:48:27;9.00;;;5.53;;
4583;SDS011;2304;47.606;12.186;2023-12-04T11:53:29;9.17;;;5.33;;
4583;SDS011;2304;47.606;12.186;2023-12-04T11:58:30;7.50;;;4.87;;
4583;SDS011;2304;47.606;12.186;2023-12-04T12:03:35;10.63;;;5.17;;
4583;SDS011;2304;47.606;12.186;2023-12-04T12:08:37;7.50;;;5.10;;
4583;SDS011;2304;47.606;12.186;2023-12-04T12:13:40;12.50;;;6.47;;
4583;SDS011;2304;47.606;12.186;2023-12-04T12:18:43;12.43;;;5.80;;
4583;SDS011;2304;47.606;12.186;2023-12-04T12:23:45;7.90;;;4.90;;
4583;SDS011;2304;47.606;12.186;2023-12-04T12:28:48;9.50;;;5.60;;
4583;SDS011;2304;47.606;12.186;2023-12-04T12:33:51;10.13;;;5.87;;
4583;SDS011;2304;47.606;12.186;2023-12-04T12:38:53;8.40;;;5.53;;
4583;SDS011;2304;47.606;12.186;2023-12-04T12:43:56;8.43;;;4.87;;
4583;SDS011;2304;47.606;12.186;2023-12-04T12:48:59;13.63;;;6.00;;
4583;SDS011;2304;47.606;12.186;2023-12-04T12:54:01;11.50;;;6.03;;
4583;SDS011;2304;47.606;12.186;2023-12-04T12:59:03;9.73;;;6.57;;
4583;SDS011;2304;47.606;12.186;2023-12-04T13:04:08;11.40;;;6.70;;
4583;SDS011;2304;47.606;12.186;2023-12-04T13:14:17;10.43;;;6.67;;
4583;SDS011;2304;47.606;12.186;2023-12-04T13:19:20;10.60;;;6.20;;
4583;SDS011;2304;47.606;12.186;2023-12-04T13:24:23;19.43;;;7.13;;
4583;SDS011;2304;47.606;12.186;2023-12-04T13:29:25;10.00;;;6.93;;
4583;SDS011;2304;47.606;12.186;2023-12-04T13:34:28;8.30;;;5.73;;
4583;SDS011;2304;47.606;12.186;2023-12-04T13:39:30;10.17;;;7.37;;
4583;SDS011;2304;47.606;12.186;2023-12-04T13:44:47;9.10;;;5.80;;
4583;SDS011;2304;47.606;12.186;2023-12-04T13:49:50;13.37;;;7.40;;
4583;SDS011;2304;47.606;12.186;2023-12-04T13:54:52;14.70;;;8.40;;
4583;SDS011;2304;47.606;12.186;2023-12-04T13:59:55;17.17;;;10.30;;
4583;SDS011;2304;47.606;12.186;2023-12-04T14:04:59;11.60;;;7.60;;
4583;SDS011;2304;47.606;12.186;2023-12-04T14:10:01;9.87;;;6.03;;
4583;SDS011;2304;47.606;12.186;2023-12-04T14:15:03;9.83;;;6.87;;
4583;SDS011;2304;47.606;12.186;2023-12-04T14:20:08;11.00;;;6.73;;
4583;SDS011;2304;47.606;12.186;2023-12-04T14:25:12;13.13;;;8.40;;
4583;SDS011;2304;47.606;12.186;2023-12-04T14:30:14;11.03;;;6.97;;
4583;SDS011;2304;47.606;12.186;2023-12-04T14:35:18;12.27;;;7.00;;
4583;SDS011;2304;47.606;12.186;2023-12-04T14:40:20;8.57;;;6.53;;
4583;SDS011;2304;47.606;12.186;2023-12-04T14:45:21;8.97;;;6.00;;
4583;SDS011;2304;47.606;12.186;2023-12-04T14:50:25;18.50;;;8.13;;
4583;SDS011;2304;47.606;12.186;2023-12-04T14:55:27;13.57;;;7.70;;
4583;SDS011;2304;47.606;12.186;2023-12-04T15:00:46;11.37;;;7.00;;
4583;SDS011;2304;47.606;12.186;2023-12-04T15:06:09;11.97;;;7.90;;
4583;SDS011;2304;47.606;12.186;2023-12-04T15:11:28;15.97;;;7.20;;
4583;SDS011;2304;47.606;12.186;2023-12-04T15:16:47;13.20;;;7.10;;
4583;SDS011;2304;47.606;12.186;2023-12-04T15:21:55;17.63;;;7.57;;
4583;SDS011;2304;47.606;12.186;2023-12-04T15:26:57;14.47;;;8.10;;
4583;SDS011;2304;47.606;12.186;2023-12-04T15:31:59;16.30;;;9.00;;
4583;SDS011;2304;47.606;12.186;2023-12-04T15:37:02;16.63;;;8.50;;
4583;SDS011;2304;47.606;12.186;2023-12-04T15:42:04;13.27;;;8.33;;
4583;SDS011;2304;47.606;12.186;2023-12-04T15:47:07;12.57;;;8.33;;
4583;SDS011;2304;47.606;12.186;2023-12-04T15:52:10;15.13;;;9.13;;
4583;SDS011;2304;47.606;12.186;2023-12-04T15:57:12;15.43;;;9.53;;
4583;SDS011;2304;47.606;12.186;2023-12-04T16:02:16;13.80;;;9.67;;
4583;SDS011;2304;47.606;12.186;2023-12-04T16:07:19;16.43;;;9.70;;
4583;SDS011;2304;47.606;12.186;2023-12-04T16:12:21;19.13;;;10.40;;
4583;SDS011;2304;47.606;12.186;2023-12-04T16:17:23;15.17;;;9.93;;
4583;SDS011;2304;47.606;12.186;2023-12-04T16:22:26;19.60;;;11.17;;
4583;SDS011;2304;47.606;12.186;2023-12-04T16:27:28;17.93;;;11.67;;
4583;SDS011;2304;47.606;12.186;2023-12-04T16:32:29;22.10;;;12.43;;
4583;SDS011;2304;47.606;12.186;2023-12-04T16:37:33;21.27;;;12.03;;
4583;SDS011;2304;47.606;12.186;2023-12-04T16:42:35;30.10;;;14.20;;
4583;SDS011;2304;47.606;12.186;2023-12-04T16:47:37;20.40;;;12.13;;
4583;SDS011;2304;47.606;12.186;2023-12-04T16:52:40;17.77;;;10.30;;
4583;SDS011;2304;47.606;12.186;2023-12-04T16:57:43;19.87;;;10.03;;
4583;SDS011;2304;47.606;12.186;2023-12-04T17:02:45;17.03;;;7.87;;
4583;SDS011;2304;47.606;12.186;2023-12-04T17:07:48;19.13;;;9.40;;
4583;SDS011;2304;47.606;12.186;2023-12-04T17:12:50;15.87;;;9.97;;
4583;SDS011;2304;47.606;12.186;2023-12-04T17:18:01;14.37;;;9.30;;
4583;SDS011;2304;47.606;12.186;2023-12-04T17:23:04;17.63;;;8.13;;
4583;SDS011;2304;47.606;12.186;2023-12-04T17:28:06;11.23;;;6.83;;
4583;SDS011;2304;47.606;12.186;2023-12-04T17:33:09;20.30;;;9.87;;
4583;SDS011;2304;47.606;12.186;2023-12-04T17:38:12;16.07;;;9.70;;
4583;SDS011;2304;47.606;12.186;2023-12-04T17:43:14;16.10;;;10.10;;
4583;SDS011;2304;47.606;12.186;2023-12-04T17:48:16;14.43;;;7.47;;
4583;SDS011;2304;47.606;12.186;2023-12-04T17:53:22;13.77;;;8.20;;
4583;SDS011;2304;47.606;12.186;2023-12-04T17:58:24;19.67;;;8.60;;
4583;SDS011;2304;47.606;12.186;2023-12-04T18:03:26;16.57;;;8.30;;
4583;SDS011;2304;47.606;12.186;2023-12-04T18:08:29;16.83;;;8.07;;
4583;SDS011;2304;47.606;12.186;2023-12-04T18:13:31;17.47;;;9.60;;
4583;SDS011;2304;47.606;12.186;2023-12-04T18:18:34;12.60;;;7.17;;
4583;SDS011;2304;47.606;12.186;2023-12-04T18:23:37;14.90;;;6.80;;
4583;SDS011;2304;47.606;12.186;2023-12-04T18:28:39;13.80;;;7.67;;
4583;SDS011;2304;47.606;12.186;2023-12-04T18:33:42;13.97;;;7.87;;
4583;SDS011;2304;47.606;12.186;2023-12-04T18:38:49;15.57;;;8.30;;
4583;SDS011;2304;47.606;12.186;2023-12-04T18:43:52;14.70;;;7.97;;
4583;SDS011;2304;47.606;12.186;2023-12-04T18:48:54;19.47;;;9.80;;
4583;SDS011;2304;47.606;12.186;2023-12-04T18:53:59;15.53;;;9.53;;
4583;SDS011;2304;47.606;12.186;2023-12-04T18:59:01;14.70;;;8.33;;
4583;SDS011;2304;47.606;12.186;2023-12-04T19:04:03;22.00;;;8.90;;
4583;SDS011;2304;47.606;12.186;2023-12-04T19:09:06;17.80;;;10.50;;
4583;SDS011;2304;47.606;12.186;2023-12-04T19:14:08;20.00;;;10.30;;
4583;SDS011;2304;47.606;12.186;2023-12-04T19:19:10;26.40;;;8.93;;
4583;SDS011;2304;47.606;12.186;2023-12-04T19:24:13;11.53;;;7.40;;
4583;SDS011;2304;47.606;12.186;2023-12-04T19:29:16;12.37;;;7.60;;
4583;SDS011;2304;47.606;12.186;2023-12-04T19:34:18;12.37;;;7.70;;
4583;SDS011;2304;47.606;12.186;2023-12-04T19:39:21;16.30;;;7.87;;
4583;SDS011;2304;47.606;12.186;2023-12-04T19:44:23;12.93;;;7.00;;
4583;SDS011;2304;47.606;12.186;2023-12-04T19:49:25;12.03;;;7.20;;
4583;SDS011;2304;47.606;12.186;2023-12-04T19:54:29;9.07;;;5.77;;
4583;SDS011;2304;47.606;12.186;2023-12-04T19:59:31;9.70;;;5.67;;
4583;SDS011;2304;47.606;12.186;2023-12-04T20:04:32;11.43;;;7.10;;
4583;SDS011;2304;47.606;12.186;2023-12-04T20:09:36;8.77;;;5.70;;
4583;SDS011;2304;47.606;12.186;2023-12-04T20:14:38;11.23;;;6.20;;
4583;SDS011;2304;47.606;12.186;2023-12-04T20:19:41;11.23;;;6.13;;
4583;SDS011;2304;47.606;12.186;2023-12-04T20:24:45;9.03;;;5.00;;
4583;SDS011;2304;47.606;12.186;2023-12-04T20:29:47;7.40;;;4.77;;
4583;SDS011;2304;47.606;12.186;2023-12-04T20:34:49;11.07;;;6.30;;
4583;SDS011;2304;47.606;12.186;2023-12-04T20:39:52;8.80;;;4.90;;
4583;SDS011;2304;47.606;12.186;2023-12-04T20:44:54;9.53;;;6.20;;
4583;SDS011;2304;47.606;12.186;2023-12-04T20:49:56;12.87;;;6.13;;
4583;SDS011;2304;47.606;12.186;2023-12-04T20:54:59;8.57;;;5.50;;
4583;SDS011;2304;47.606;12.186;2023-12-04T21:00:02;8.50;;;5.90;;
4583;SDS011;2304;47.606;12.186;2023-12-04T21:05:08;10.33;;;5.70;;
4583;SDS011;2304;47.606;12.186;2023-12-04T21:10:12;8.27;;;5.80;;
4583;SDS011;2304;47.606;12.186;2023-12-04T21:15:14;8.40;;;4.73;;
4583;SDS011;2304;47.606;12.186;2023-12-04T21:20:16;9.60;;;5.20;;
4583;SDS011;2304;47.606;12.186;2023-12-04T21:25:21;8.33;;;5.17;;
4583;SDS011;2304;47.606;12.186;2023-12-04T21:30:23;10.77;;;6.47;;
4583;SDS011;2304;47.606;12.186;2023-12-04T21:35:25;8.50;;;4.37;;
4583;SDS011;2304;47.606;12.186;2023-12-04T21:40:28;9.17;;;5.23;;
4583;SDS011;2304;47.606;12.186;2023-12-04T21:45:30;9.50;;;5.10;;
4583;SDS011;2304;47.606;12.186;2023-12-04T21:50:32;8.20;;;5.27;;
4583;SDS011;2304;47.606;12.186;2023-12-04T21:55:35;8.17;;;5.17;;
4583;SDS011;2304;47.606;12.186;2023-12-04T22:00:37;8.43;;;5.00;;
4583;SDS011;2304;47.606;12.186;2023-12-04T22:05:39;9.67;;;5.23;;
4583;SDS011;2304;47.606;12.186;2023-12-04T22:10:42;10.60;;;5.40;;
4583;SDS011;2304;47.606;12.186;2023-12-04T22:15:44;9.33;;;5.00;;
4583;SDS011;2304;47.606;12.186;2023-12-04T22:20:46;6.83;;;4.23;;
4583;SDS011;2304;47.606;12.186;2023-12-04T22:25:49;8.27;;;4.27;;
4583;SDS011;2304;47.606;12.186;2023-12-04T22:30:51;9.00;;;5.63;;
4583;SDS011;2304;47.606;12.186;2023-12-04T22:35:53;8.07;;;4.40;;
4583;SDS011;2304;47.606;12.186;2023-12-04T22:40:56;6.47;;;4.23;;
4583;SDS011;2304;47.606;12.186;2023-12-04T22:45:58;6.80;;;4.23;;
4583;SDS011;2304;47.606;12.186;2023-12-04T22:51:00;7.17;;;4.60;;
4583;SDS011;2304;47.606;12.186;2023-12-04T22:56:04;7.90;;;4.40;;
4583;SDS011;2304;47.606;12.186;2023-12-04T23:01:07;6.33;;;4.47;;
4583;SDS011;2304;47.606;12.186;2023-12-04T23:06:09;6.53;;;4.90;;
4583;SDS011;2304;47.606;12.186;2023-12-04T23:11:12;6.67;;;4.50;;
4583;SDS011;2304;47.606;12.186;2023-12-04T23:16:14;6.97;;;4.67;;
4583;SDS011;2304;47.606;12.186;2023-12-04T23:21:16;6.40;;;4.03;;
4583;SDS011;2304;47.606;12.186;2023-12-04T23:26:20;6.53;;;4.27;;
4583;SDS011;2304;47.606;12.186;2023-12-04T23:31:21;13.40;;;4.00;;
4583;SDS011;2304;47.606;12.186;2023-12-04T23:36:23;8.93;;;5.10;;
4583;SDS011;2304;47.606;12.186;2023-12-04T23:41:28;7.87;;;4.90;;
4583;SDS011;2304;47.606;12.186;2023-12-04T23:46:29;6.93;;;4.43;;
4583;SDS011;2304;47.606;12.186;2023-12-04T23:51:31;8.20;;;3.73;;
4583;SDS011;2304;47.606;12.186;2023-12-04T23:56:35;7.43;;;4.50;;
